createdAt,value
2023-03-23T16:00:47.187Z,100225.16
2023-03-23T16:05:54.759Z,100219.16
2023-03-23T16:11:00.132Z,100224.72
2023-03-23T16:16:05.195Z,100222.41
2023-03-23T16:21:12.761Z,100214.72
2023-03-23T16:26:16.937Z,100207.56
2023-03-23T16:31:18.823Z,100217.59
2023-03-23T16:36:20.747Z,100225.47
2023-03-23T16:41:22.471Z,100229.25
2023-03-23T16:46:28.884Z,100226.75
2023-03-23T16:51:34.079Z,100235.88
2023-03-23T16:56:36.814Z,100224.09
2023-03-23T17:01:45.785Z,100217.81
2023-03-23T17:06:53.118Z,100220.31
2023-03-23T17:11:55.215Z,100227.75
2023-03-23T17:16:57.823Z,100234.16
2023-03-23T17:22:03.596Z,100253.63
2023-03-23T17:27:07.681Z,100245.34
2023-03-23T17:32:09.497Z,100246.34
2023-03-23T17:37:11.702Z,100250.00
2023-03-23T17:42:13.556Z,100277.19
2023-03-23T17:47:15.671Z,100277.31
2023-03-23T17:52:19.899Z,100276.16
2023-03-23T17:57:21.606Z,100269.22
2023-03-23T18:08:26.228Z,100266.81
2023-03-23T18:13:30.880Z,100270.97
2023-03-23T18:18:32.903Z,100273.91
2023-03-23T18:23:43.075Z,100278.50
2023-03-23T18:28:52.329Z,100274.38
2023-03-23T18:33:56.069Z,100286.34
2023-03-23T18:38:57.954Z,100281.00
2023-03-23T18:44:04.894Z,100287.19
2023-03-23T18:49:13.646Z,100277.06
2023-03-23T18:54:17.307Z,100278.28
2023-03-23T18:59:19.017Z,100274.16
2023-03-23T19:04:23.234Z,100278.47
2023-03-23T19:09:25.547Z,100265.69
2023-03-23T19:14:27.539Z,100254.56
2023-03-23T19:19:29.309Z,100247.13
2023-03-23T19:24:31.135Z,100245.06
2023-03-23T19:29:32.874Z,100238.44
2023-03-23T19:34:34.710Z,100241.75
2023-03-23T19:39:36.791Z,100241.53
2023-03-23T19:44:41.550Z,100236.97
2023-03-23T19:49:45.978Z,100238.84
2023-03-23T19:54:49.956Z,100238.81
2023-03-23T19:59:51.688Z,100228.72
2023-03-23T20:04:53.538Z,100223.78
2023-03-23T20:09:55.214Z,100221.31
2023-03-23T20:14:59.058Z,100218.22
2023-03-23T20:20:06.302Z,100223.97
2023-03-23T20:25:09.046Z,100219.22
2023-03-23T20:30:11.889Z,100201.06
2023-03-23T20:35:18.789Z,100203.97
2023-03-23T20:40:20.824Z,100206.22
2023-03-23T20:45:24.831Z,100197.38
2023-03-23T20:50:26.531Z,100192.81
2023-03-23T20:55:30.745Z,100183.41
2023-03-23T21:00:34.740Z,100188.38
2023-03-23T21:05:36.678Z,100177.66
2023-03-23T21:10:44.107Z,100176.41
2023-03-23T21:15:46.686Z,100161.16
2023-03-23T21:20:53.576Z,100166.50
2023-03-23T21:26:00.535Z,100144.03
2023-03-23T21:31:07.312Z,100144.19
2023-03-23T21:36:09.821Z,100134.09
2023-03-23T21:41:14.066Z,100130.00
2023-03-23T21:46:18.378Z,100123.22
2023-03-23T21:51:28.230Z,100112.06
2023-03-23T21:56:30.009Z,100100.97
2023-03-23T22:01:36.919Z,100097.88
2023-03-23T22:06:44.549Z,100088.84
2023-03-23T22:11:48.816Z,100084.28
2023-03-23T22:16:51.172Z,100062.44
2023-03-23T22:21:55.107Z,100060.63
2023-03-23T22:26:56.948Z,100053.19
2023-03-23T22:32:03.362Z,100045.97
2023-03-23T22:37:05.672Z,100029.28
2023-03-23T22:42:07.772Z,100048.47
2023-03-23T22:47:11.732Z,100028.50
2023-03-23T22:52:16.156Z,100017.56
2023-03-23T22:57:17.890Z,100008.72
2023-03-23T23:02:19.686Z,100001.50
2023-03-23T23:07:23.697Z,99985.44
2023-03-23T23:12:29.895Z,99979.88
2023-03-23T23:17:35.110Z,99970.63
2023-03-23T23:22:43.759Z,99968.56
2023-03-23T23:27:49.087Z,99956.00
2023-03-23T23:32:56.806Z,99941.81
2023-03-23T23:38:06.961Z,99931.28
2023-03-23T23:43:14.421Z,99928.81
2023-03-23T23:48:18.713Z,99916.88
2023-03-23T23:53:22.904Z,99907.03
2023-03-23T23:58:24.681Z,99906.78
